Terminal Aerodrome Forecast
Issued by NWS

Home | Current Version | Previous Version | Text Only | Print | Product List | Glossary On
Versions: 1 2 3 4 5 6 7 8 9 10 11 12 13 14 15 16 17 18 19 20 21 22 23
000
FTUS43 KGRB 172124 AAA
TAFRHI
TAF AMD
KRHI 172124Z 1721/1818 16004KT 6SM BR OVC006
     FM172200 19003KT 5SM BR OVC006
      TEMPO 1722/1802 2SM -SN BR OVC004
     FM180200 24004KT 2SM BR OVC003
     FM181600 23009KT 4SM BR BKN008=

USA.gov is the U.S. government's official web portal to all federal, state and local government web resources and services.